Time;durP1;ratioP1;P1;durP2;ratioP2;P2;SDS_P1;SDS_P2;PMS_P1;PMS_P2;Temp;Humidity;BMP_temperature;BMP_pressure;BME280_temperature;BME280_humidity;BME280_pressure;Samples;Min_cycle;Max_cycle;Signal;HPM_P1;HPM_P2
2022/05/22 00:01:57;;;;;;;15.90;7.60;;;13.30;78.90;;;;;;4991593;28;20117;-77
2022/05/22 00:04:23;;;;;;;16.92;7.72;;;13.30;79.00;;;;;;4999401;28;20069;-78
2022/05/22 00:06:49;;;;;;;14.45;7.40;;;13.30;79.10;;;;;;4998108;28;20443;-77
2022/05/22 00:09:15;;;;;;;14.52;7.40;;;13.20;79.10;;;;;;4991903;28;20030;-77
2022/05/22 00:11:40;;;;;;;14.13;7.22;;;13.10;79.30;;;;;;4992746;28;20461;-77
2022/05/22 00:14:07;;;;;;;15.65;7.50;;;13.10;79.60;;;;;;4997302;28;20542;-77
2022/05/22 00:16:41;;;;;;;19.92;8.70;;;13.10;79.80;;;;;;5000568;28;20161;-77
2022/05/22 00:19:15;;;;;;;13.30;7.18;;;13.10;79.80;;;;;;4992635;28;20038;-77
2022/05/22 00:21:42;;;;;;;17.37;8.57;;;13.10;79.90;;;;;;5000197;28;20041;-77
2022/05/22 00:24:09;;;;;;;19.23;8.38;;;13.00;80.10;;;;;;4999927;28;20509;-77
2022/05/22 00:26:35;;;;;;;17.65;8.70;;;13.00;80.40;;;;;;4999863;28;20049;-77
2022/05/22 00:29:01;;;;;;;14.02;8.10;;;12.90;80.40;;;;;;4988556;28;20031;-77
2022/05/22 00:31:27;;;;;;;13.98;8.18;;;13.00;80.50;;;;;;4995787;28;20531;-77
2022/05/22 00:33:52;;;;;;;17.85;8.20;;;12.90;80.70;;;;;;4998013;28;20128;-77
2022/05/22 00:36:18;;;;;;;15.65;8.10;;;12.90;80.80;;;;;;4994131;28;20144;-77
2022/05/22 00:38:44;;;;;;;16.35;7.97;;;13.00;80.60;;;;;;4995273;28;20034;-77
2022/05/22 00:41:12;;;;;;;14.25;8.07;;;12.90;80.30;;;;;;4996902;28;20126;-77
2022/05/22 00:43:47;;;;;;;13.95;6.97;;;12.90;80.40;;;;;;4997069;28;20045;-77
2022/05/22 00:46:16;;;;;;;16.23;6.95;;;12.90;80.50;;;;;;4998159;28;20141;-77
2022/05/22 00:48:44;;;;;;;13.85;6.88;;;12.80;80.50;;;;;;4992548;28;20030;-77
2022/05/22 00:51:33;;;;;;;14.85;7.10;;;12.80;80.50;;;;;;4999700;28;20437;-77
2022/05/22 00:54:04;;;;;;;11.90;7.65;;;12.70;80.60;;;;;;4997304;28;21040;-77
2022/05/22 00:56:36;;;;;;;15.40;7.47;;;12.70;80.60;;;;;;4994984;28;20081;-77
2022/05/22 00:59:07;;;;;;;14.43;7.47;;;12.70;80.30;;;;;;4993934;28;20044;-78
2022/05/22 01:01:34;;;;;;;17.80;7.82;;;12.60;80.50;;;;;;4998017;28;20041;-77
2022/05/22 01:04:03;;;;;;;12.88;7.90;;;12.60;80.70;;;;;;4986693;28;20039;-77
2022/05/22 01:06:29;;;;;;;15.07;8.48;;;12.60;80.80;;;;;;4996936;28;20359;-77
2022/05/22 01:08:54;;;;;;;19.83;9.98;;;12.60;80.90;;;;;;4998333;28;20041;-77
2022/05/22 01:11:26;;;;;;;17.05;9.40;;;12.50;81.40;;;;;;4995618;28;20417;-78
2022/05/22 01:14:19;;;;;;;18.73;9.35;;;12.40;81.70;;;;;;4992496;28;20529;-77
2022/05/22 01:16:45;;;;;;;20.25;9.32;;;12.40;82.10;;;;;;4995375;28;20037;-77
2022/05/22 01:19:15;;;;;;;20.10;9.90;;;12.40;82.20;;;;;;4993490;28;20030;-77
2022/05/22 01:21:47;;;;;;;16.52;9.23;;;12.40;82.20;;;;;;4993919;28;20057;-77
2022/05/22 01:24:13;;;;;;;14.95;9.10;;;12.40;82.20;;;;;;4999858;28;20112;-77
2022/05/22 01:26:39;;;;;;;15.15;8.40;;;12.40;82.10;;;;;;4998171;28;20048;-78
2022/05/22 01:29:04;;;;;;;20.10;9.68;;;12.40;82.00;;;;;;4987792;28;20082;-77
2022/05/22 01:31:30;;;;;;;14.48;8.68;;;12.40;82.10;;;;;;4993625;28;20517;-78
2022/05/22 01:33:56;;;;;;;17.33;9.55;;;12.40;82.10;;;;;;4998768;28;20453;-76
2022/05/22 01:36:21;;;;;;;18.10;9.90;;;12.30;82.10;;;;;;4998610;28;20363;-79
2022/05/22 01:38:47;;;;;;;13.85;9.00;;;12.30;82.20;;;;;;4999228;28;20322;-78
2022/05/22 01:41:13;;;;;;;19.85;10.05;;;12.30;82.30;;;;;;4994923;28;20116;-76
2022/05/22 01:43:38;;;;;;;19.48;9.82;;;12.30;82.40;;;;;;5004514;28;20383;-77
2022/05/22 01:46:04;;;;;;;16.55;9.95;;;12.30;82.50;;;;;;4995627;28;20049;-76
2022/05/22 01:48:30;;;;;;;18.83;9.90;;;12.20;82.60;;;;;;4999154;28;20042;-76
2022/05/22 01:50:56;;;;;;;17.77;9.95;;;12.20;82.70;;;;;;5000906;28;20397;-76
2022/05/22 01:53:22;;;;;;;19.55;9.98;;;12.10;82.80;;;;;;4991707;28;20120;-77
2022/05/22 01:55:50;;;;;;;17.67;10.10;;;12.10;82.90;;;;;;4999725;28;20057;-77
2022/05/22 01:58:16;;;;;;;17.20;10.05;;;12.20;82.90;;;;;;4999708;28;20085;-77
2022/05/22 02:00:42;;;;;;;17.75;9.80;;;12.10;82.70;;;;;;5000490;28;20552;-78
2022/05/22 02:03:08;;;;;;;17.15;10.30;;;12.10;82.70;;;;;;5000405;28;20204;-78
2022/05/22 02:05:35;;;;;;;18.63;10.35;;;12.00;82.70;;;;;;5001408;28;20420;-78
2022/05/22 02:08:19;;;;;;;15.32;9.43;;;12.00;82.90;;;;;;5001338;28;20046;-78
2022/05/22 02:10:46;;;;;;;17.67;10.63;;;12.00;82.90;;;;;;5001261;28;20042;-78
2022/05/22 02:13:16;;;;;;;20.42;11.00;;;12.00;83.00;;;;;;4994200;28;20541;-78
2022/05/22 02:15:43;;;;;;;14.55;10.57;;;12.10;83.10;;;;;;4996236;28;20873;-77
2022/05/22 02:18:09;;;;;;;16.73;10.50;;;12.00;83.10;;;;;;4994792;28;20379;-78
2022/05/22 02:20:34;;;;;;;19.88;11.32;;;12.10;83.10;;;;;;5001808;28;20064;-78
2022/05/22 02:23:00;;;;;;;15.93;10.40;;;12.00;83.10;;;;;;5003676;28;20117;-78
2022/05/22 02:25:32;;;;;;;22.52;11.77;;;11.90;83.10;;;;;;5002487;28;20041;-77
2022/05/22 02:27:58;;;;;;;17.23;10.63;;;11.90;83.30;;;;;;4995984;28;20454;-78
2022/05/22 02:30:27;;;;;;;19.00;11.02;;;11.80;83.40;;;;;;5005474;28;20104;-78
2022/05/22 02:32:53;;;;;;;26.25;10.52;;;11.90;83.60;;;;;;5004472;28;20111;-78
2022/05/22 02:35:19;;;;;;;20.25;11.95;;;11.80;83.70;;;;;;4996358;28;20397;-76
2022/05/22 02:37:48;;;;;;;18.55;10.45;;;11.80;83.90;;;;;;5000504;28;20046;-77
2022/05/22 02:40:16;;;;;;;15.55;10.63;;;11.80;84.00;;;;;;4989818;28;20042;-77
2022/05/22 02:42:43;;;;;;;19.42;11.75;;;11.80;84.20;;;;;;4996416;28;20236;-77
2022/05/22 02:45:11;;;;;;;17.85;10.77;;;11.80;84.30;;;;;;4998983;28;20450;-77
2022/05/22 02:47:37;;;;;;;22.58;11.18;;;11.70;84.40;;;;;;4996168;28;20397;-77
2022/05/22 02:50:05;;;;;;;16.92;10.18;;;11.70;84.50;;;;;;4999243;28;20069;-77
2022/05/22 02:52:31;;;;;;;21.02;12.35;;;11.70;84.50;;;;;;5000698;28;20488;-78
2022/05/22 02:54:57;;;;;;;17.75;11.18;;;11.70;84.40;;;;;;4996848;28;20537;-79
2022/05/22 02:57:23;;;;;;;15.20;10.68;;;11.60;84.60;;;;;;5000106;28;20598;-78
2022/05/22 02:59:49;;;;;;;15.20;9.63;;;11.60;84.50;;;;;;5004607;28;20122;-78
2022/05/22 03:02:15;;;;;;;15.85;10.95;;;11.60;84.50;;;;;;4994623;28;20470;-79
2022/05/22 03:04:41;;;;;;;17.27;10.48;;;11.60;84.50;;;;;;4996355;28;20041;-79
2022/05/22 03:07:08;;;;;;;17.00;9.98;;;11.60;84.50;;;;;;4997788;28;20496;-78
2022/05/22 03:09:40;;;;;;;17.10;10.20;;;11.60;84.40;;;;;;4999828;28;20354;-78
2022/05/22 03:12:08;;;;;;;19.42;10.55;;;11.50;84.40;;;;;;5001846;28;20481;-78
2022/05/22 03:14:33;;;;;;;19.92;11.55;;;11.50;84.40;;;;;;4990737;28;20042;-78
2022/05/22 03:16:59;;;;;;;18.13;10.82;;;11.50;84.40;;;;;;4997568;28;20453;-78
2022/05/22 03:19:25;;;;;;;18.25;11.27;;;11.50;84.50;;;;;;4998772;28;20370;-78
2022/05/22 03:21:51;;;;;;;17.77;10.23;;;11.50;84.50;;;;;;5003313;28;20377;-79
2022/05/22 03:24:17;;;;;;;14.95;9.73;;;11.50;84.30;;;;;;5001133;28;20062;-78
2022/05/22 03:26:43;;;;;;;15.07;9.80;;;11.50;84.30;;;;;;4998380;28;20433;-78
2022/05/22 03:29:08;;;;;;;15.68;10.02;;;11.40;84.40;;;;;;4999815;28;20026;-78
2022/05/22 03:31:34;;;;;;;18.88;10.25;;;11.40;84.30;;;;;;4999107;28;20461;-78
2022/05/22 03:33:59;;;;;;;13.13;8.70;;;11.40;84.10;;;;;;5001224;28;20049;-77
2022/05/22 03:36:25;;;;;;;15.90;9.73;;;11.40;83.90;;;;;;4992363;28;20161;-78
2022/05/22 03:38:51;;;;;;;14.70;10.48;;;11.40;83.80;;;;;;4992309;28;20117;-78
2022/05/22 03:41:17;;;;;;;16.63;10.25;;;11.30;83.90;;;;;;4984159;28;20054;-78
2022/05/22 03:43:42;;;;;;;20.98;11.32;;;11.20;84.00;;;;;;4998655;28;20122;-78
2022/05/22 03:46:08;;;;;;;15.23;10.10;;;11.20;84.30;;;;;;5001728;28;20045;-78
2022/05/22 03:48:34;;;;;;;17.17;10.95;;;11.20;84.30;;;;;;4998008;28;20037;-78
2022/05/22 03:50:59;;;;;;;15.05;9.65;;;11.20;84.40;;;;;;5001146;28;20034;-77
2022/05/22 03:53:27;;;;;;;16.38;10.02;;;11.30;84.30;;;;;;4992464;28;20046;-78
2022/05/22 03:55:52;;;;;;;18.17;10.30;;;11.30;84.30;;;;;;4996463;28;20073;-78
2022/05/22 03:58:18;;;;;;;16.30;10.15;;;11.40;84.30;;;;;;4998041;28;20115;-77
2022/05/22 04:00:44;;;;;;;15.63;10.00;;;11.40;84.00;;;;;;4995498;28;20441;-77
2022/05/22 04:03:10;;;;;;;17.05;10.27;;;11.40;83.70;;;;;;4994289;28;20061;-78
2022/05/22 04:05:36;;;;;;;16.15;10.00;;;11.50;83.50;;;;;;4995558;28;20039;-78
2022/05/22 04:08:01;;;;;;;16.70;10.93;;;11.50;83.40;;;;;;4996587;28;20381;-79
2022/05/22 04:10:27;;;;;;;14.77;9.35;;;11.60;83.40;;;;;;4991167;28;20034;-79
2022/05/22 04:12:53;;;;;;;16.40;9.63;;;11.60;83.50;;;;;;4999768;28;20579;-78
2022/05/22 04:15:21;;;;;;;14.70;9.85;;;11.70;83.30;;;;;;4991511;28;20038;-77
2022/05/22 04:17:47;;;;;;;20.58;11.02;;;11.70;83.10;;;;;;4990321;28;20381;-79
2022/05/22 04:20:14;;;;;;;15.25;9.57;;;11.80;82.80;;;;;;4993032;28;20040;-79
2022/05/22 04:25:24;;;;;;;19.23;11.43;;;11.70;82.90;;;;;;4992611;28;20042;-78
2022/05/22 04:27:50;;;;;;;16.08;10.13;;;11.80;82.80;;;;;;4990916;28;20030;-79
2022/05/22 04:30:20;;;;;;;16.75;10.77;;;11.90;82.50;;;;;;4997192;28;20034;-78
2022/05/22 04:32:50;;;;;;;18.08;11.00;;;12.00;82.20;;;;;;4996809;28;20035;-77
2022/05/22 04:35:17;;;;;;;14.75;10.65;;;12.10;82.10;;;;;;4995538;28;20053;-77
2022/05/22 04:37:43;;;;;;;18.27;10.52;;;12.10;82.10;;;;;;4999432;28;20041;-77
2022/05/22 04:40:10;;;;;;;15.73;9.98;;;12.20;82.00;;;;;;4993287;28;20038;-76
2022/05/22 04:42:37;;;;;;;12.73;9.23;;;12.30;81.80;;;;;;4997271;28;20029;-77
2022/05/22 04:45:05;;;;;;;15.68;11.30;;;12.30;81.40;;;;;;4999119;28;20374;-77
2022/05/22 04:47:30;;;;;;;19.77;9.88;;;12.40;81.10;;;;;;4991981;28;20030;-77
2022/05/22 04:49:56;;;;;;;17.02;9.65;;;12.50;81.00;;;;;;4999159;28;20461;-78
2022/05/22 04:52:22;;;;;;;14.88;8.65;;;12.60;81.00;;;;;;4997061;28;20458;-77
2022/05/22 04:54:48;;;;;;;16.60;9.57;;;12.70;80.90;;;;;;4998891;28;20046;-77
2022/05/22 04:57:13;;;;;;;16.13;8.90;;;12.80;80.60;;;;;;4999430;28;20337;-77
2022/05/22 04:59:39;;;;;;;16.25;9.48;;;12.90;80.30;;;;;;4996656;28;20367;-77
2022/05/22 05:02:05;;;;;;;17.35;10.13;;;13.00;80.00;;;;;;4990293;28;20088;-77
2022/05/22 05:04:31;;;;;;;16.80;9.80;;;13.10;79.60;;;;;;4990143;28;20308;-77
2022/05/22 05:06:58;;;;;;;14.93;8.98;;;13.10;79.10;;;;;;4993383;28;20035;-77
2022/05/22 05:09:24;;;;;;;17.42;10.55;;;13.10;79.00;;;;;;4995561;28;20022;-77
2022/05/22 05:11:49;;;;;;;17.77;10.40;;;13.10;78.80;;;;;;4994491;28;20045;-77
2022/05/22 05:14:15;;;;;;;23.48;10.30;;;13.10;79.50;;;;;;4996327;28;20493;-78
2022/05/22 05:16:41;;;;;;;19.30;10.45;;;13.10;79.10;;;;;;5002810;28;20033;-77
2022/05/22 05:19:06;;;;;;;18.40;10.00;;;13.30;79.30;;;;;;4994957;28;20534;-77
2022/05/22 05:21:32;;;;;;;15.15;8.98;;;13.90;77.50;;;;;;4998792;28;20030;-77
2022/05/22 05:23:57;;;;;;;16.52;8.35;;;14.90;75.60;;;;;;5003948;28;20376;-77
2022/05/22 05:26:23;;;;;;;13.25;7.28;;;16.30;71.90;;;;;;4997876;28;20369;-78
2022/05/22 05:28:50;;;;;;;14.02;7.60;;;17.70;67.60;;;;;;4996212;28;20030;-77
2022/05/22 05:31:15;;;;;;;13.90;7.13;;;18.90;61.50;;;;;;5000216;28;20057;-77
2022/05/22 05:33:41;;;;;;;17.42;7.28;;;19.60;59.40;;;;;;5002113;28;20046;-78
2022/05/22 05:36:11;;;;;;;16.77;6.45;;;20.10;56.50;;;;;;4990487;28;20100;-78
2022/05/22 05:38:37;;;;;;;13.73;6.63;;;20.60;54.40;;;;;;4985445;28;20054;-78
2022/05/22 05:41:03;;;;;;;12.65;6.07;;;21.20;54.10;;;;;;4995666;28;20037;-78
2022/05/22 05:43:29;;;;;;;11.82;6.43;;;21.40;52.60;;;;;;4999706;28;20042;-78
2022/05/22 05:45:54;;;;;;;12.27;6.00;;;21.60;52.00;;;;;;5000847;28;20535;-78
2022/05/22 05:48:20;;;;;;;12.82;6.40;;;21.80;51.20;;;;;;4996152;28;20473;-78
2022/05/22 05:50:46;;;;;;;13.27;6.80;;;21.70;51.10;;;;;;4993668;28;20035;-78
2022/05/22 05:53:11;;;;;;;13.13;6.38;;;21.30;52.00;;;;;;4999846;28;20129;-78
2022/05/22 05:55:37;;;;;;;12.25;6.13;;;20.60;53.10;;;;;;4992122;28;20046;-78
2022/05/22 05:58:03;;;;;;;19.60;7.45;;;19.90;55.20;;;;;;4993516;28;20136;-78
2022/05/22 06:00:30;;;;;;;10.80;6.28;;;18.80;58.50;;;;;;4994261;28;20234;-77
2022/05/22 06:02:56;;;;;;;15.73;7.30;;;18.10;61.40;;;;;;5000929;28;20049;-77
2022/05/22 06:05:21;;;;;;;12.27;6.50;;;17.60;63.80;;;;;;4997221;28;20519;-77
2022/05/22 06:07:51;;;;;;;15.05;7.68;;;17.30;64.80;;;;;;4999311;28;20046;-77
2022/05/22 06:10:19;;;;;;;14.63;6.85;;;17.10;65.80;;;;;;4994419;28;20374;-77
2022/05/22 06:12:46;;;;;;;14.32;7.28;;;17.00;66.80;;;;;;4990689;28;20077;-77
2022/05/22 06:15:13;;;;;;;13.95;7.20;;;16.90;67.30;;;;;;4997416;28;20267;-77
2022/05/22 06:17:44;;;;;;;12.63;6.28;;;16.90;67.80;;;;;;4993667;28;20104;-77
2022/05/22 06:20:12;;;;;;;14.82;7.38;;;17.00;67.70;;;;;;4988628;28;20038;-78
2022/05/22 06:22:38;;;;;;;16.85;7.70;;;17.00;67.60;;;;;;4998270;28;20096;-77
2022/05/22 06:25:07;;;;;;;14.27;7.68;;;17.10;67.30;;;;;;4991394;28;20042;-77
2022/05/22 06:27:33;;;;;;;14.88;7.25;;;17.10;68.40;;;;;;4997311;28;20064;-76
2022/05/22 06:29:59;;;;;;;14.02;7.43;;;17.10;68.40;;;;;;4990412;28;20062;-77
2022/05/22 06:32:26;;;;;;;15.10;7.72;;;17.30;67.90;;;;;;5000291;28;20030;-77
2022/05/22 06:34:52;;;;;;;16.27;7.90;;;17.30;69.20;;;;;;5001691;28;20755;-76
2022/05/22 06:37:21;;;;;;;12.95;6.15;;;17.50;68.20;;;;;;4997337;28;20029;-77
2022/05/22 06:39:50;;;;;;;15.57;6.75;;;17.60;67.60;;;;;;4996673;28;20133;-76
2022/05/22 06:42:28;;;;;;;14.88;8.20;;;17.80;66.70;;;;;;4998736;28;20238;-77
2022/05/22 06:45:05;;;;;;;16.85;7.03;;;18.00;66.30;;;;;;4999764;28;20473;-77
2022/05/22 06:47:34;;;;;;;16.73;6.53;;;18.10;65.30;;;;;;4995011;28;20041;-77
2022/05/22 06:50:04;;;;;;;13.95;6.38;;;18.10;64.20;;;;;;4995086;28;20034;-77
2022/05/22 06:52:32;;;;;;;15.07;6.05;;;18.20;63.80;;;;;;4996815;28;20384;-77
2022/05/22 06:55:01;;;;;;;11.75;6.05;;;18.40;62.90;;;;;;4998432;28;20092;-77
2022/05/22 06:57:28;;;;;;;11.38;5.60;;;18.40;63.30;;;;;;4999617;28;20038;-77
2022/05/22 06:59:56;;;;;;;15.45;6.13;;;18.50;61.60;;;;;;4995274;28;20537;-77
2022/05/22 07:02:23;;;;;;;16.65;5.43;;;18.60;60.90;;;;;;4999384;28;20042;-77
2022/05/22 07:04:49;;;;;;;12.85;5.07;;;18.80;60.40;;;;;;4997734;28;20053;-77
2022/05/22 07:07:14;;;;;;;13.35;5.05;;;18.70;59.00;;;;;;4996174;28;20046;-78
2022/05/22 07:09:40;;;;;;;14.23;5.35;;;18.80;59.40;;;;;;4998763;28;20050;-77
2022/05/22 07:12:08;;;;;;;13.95;5.68;;;18.90;58.60;;;;;;4995106;28;20121;-77
2022/05/22 07:14:34;;;;;;;12.48;4.90;;;19.00;59.00;;;;;;5004407;28;20058;-77
2022/05/22 07:17:05;;;;;;;12.98;5.50;;;19.00;58.40;;;;;;4994711;28;20059;-77
2022/05/22 07:19:34;;;;;;;11.98;4.72;;;19.10;57.90;;;;;;4991056;28;20040;-77
2022/05/22 07:22:09;;;;;;;11.50;4.72;;;19.20;57.70;;;;;;4996837;28;20049;-77
2022/05/22 07:24:35;;;;;;;14.30;5.45;;;19.50;56.60;;;;;;5014215;28;20050;-77
2022/05/22 07:27:01;;;;;;;14.02;5.38;;;19.40;55.60;;;;;;4995470;28;20034;-78
2022/05/22 07:29:27;;;;;;;17.52;6.10;;;19.50;56.50;;;;;;4995290;28;20116;-77
2022/05/22 07:31:54;;;;;;;12.85;5.13;;;19.60;57.00;;;;;;4994971;28;20034;-77
2022/05/22 07:34:20;;;;;;;12.77;5.25;;;19.60;56.10;;;;;;4991573;28;20168;-77
2022/05/22 07:36:46;;;;;;;15.93;5.13;;;19.80;56.20;;;;;;4993358;28;20477;-77
2022/05/22 07:39:12;;;;;;;14.30;5.43;;;20.00;56.80;;;;;;4993786;28;20064;-77
2022/05/22 07:41:37;;;;;;;12.45;5.28;;;20.20;55.80;;;;;;4993531;28;20125;-78
2022/05/22 07:44:03;;;;;;;13.85;4.95;;;20.30;55.10;;;;;;4996763;28;20862;-77
2022/05/22 07:46:29;;;;;;;13.13;6.50;;;20.30;54.50;;;;;;4992984;28;20350;-77
2022/05/22 07:48:55;;;;;;;14.63;5.95;;;20.30;54.10;;;;;;4994810;28;20033;-77
2022/05/22 07:51:21;;;;;;;16.35;5.75;;;20.30;53.80;;;;;;4994688;28;20048;-76
2022/05/22 07:53:47;;;;;;;13.82;5.47;;;20.60;54.20;;;;;;4990921;28;20038;-77
2022/05/22 07:56:13;;;;;;;12.90;5.20;;;20.60;53.30;;;;;;5003686;28;20537;-76
2022/05/22 07:58:39;;;;;;;12.20;5.57;;;20.80;53.50;;;;;;4988924;28;20053;-77
2022/05/22 08:01:05;;;;;;;15.82;5.60;;;21.00;53.00;;;;;;4990572;28;20038;-77
2022/05/22 08:03:32;;;;;;;12.60;4.72;;;21.00;52.20;;;;;;4991427;28;20445;-77
2022/05/22 08:05:58;;;;;;;15.13;5.07;;;21.10;52.00;;;;;;4991660;28;20026;-77
2022/05/22 08:08:25;;;;;;;13.80;4.97;;;21.30;50.40;;;;;;4995259;28;20472;-77
2022/05/22 08:10:53;;;;;;;15.57;5.22;;;21.40;50.10;;;;;;5000381;28;20099;-76
2022/05/22 08:13:19;;;;;;;10.60;4.22;;;21.60;50.40;;;;;;5000186;28;20116;-77
2022/05/22 08:15:45;;;;;;;15.18;5.13;;;21.80;50.40;;;;;;5002268;28;20034;-77
2022/05/22 08:18:11;;;;;;;12.88;4.72;;;21.60;49.10;;;;;;4993038;28;20042;-77
2022/05/22 08:20:39;;;;;;;15.70;5.22;;;21.60;49.90;;;;;;5000211;28;20055;-77
2022/05/22 08:23:08;;;;;;;14.55;4.97;;;21.70;48.90;;;;;;4991272;28;20030;-77
2022/05/22 08:25:34;;;;;;;11.50;4.65;;;21.80;49.90;;;;;;4990818;28;20536;-78
2022/05/22 08:28:00;;;;;;;13.52;4.63;;;22.00;48.80;;;;;;4989298;28;20030;-77
2022/05/22 08:30:28;;;;;;;10.98;4.38;;;22.10;49.40;;;;;;4985476;28;20351;-78
2022/05/22 08:32:54;;;;;;;13.05;5.18;;;22.00;49.00;;;;;;4991030;28;20038;-80
2022/05/22 08:35:28;;;;;;;13.85;4.78;;;22.00;49.00;;;;;;5013947;28;20038;-77
2022/05/22 08:37:54;;;;;;;13.18;4.60;;;22.10;49.30;;;;;;4993212;28;20211;-77
2022/05/22 08:40:22;;;;;;;12.45;5.30;;;22.30;47.50;;;;;;5001120;28;20105;-77
2022/05/22 08:42:57;;;;;;;17.02;4.57;;;22.20;48.40;;;;;;4986331;28;20551;-77
2022/05/22 08:45:27;;;;;;;11.65;4.40;;;22.30;48.30;;;;;;4992021;28;20120;-80
2022/05/22 08:48:28;;;;;;;13.20;4.43;;;22.10;49.30;;;;;;4989763;28;20046;-76
2022/05/22 08:50:57;;;;;;;13.90;5.07;;;22.40;48.40;;;;;;4988598;28;20095;-77
2022/05/22 08:53:41;;;;;;;11.00;4.13;;;22.60;48.40;;;;;;4990703;28;20116;-81
2022/05/22 08:59:03;;;;;;;13.05;4.20;;;22.90;47.20;;;;;;4993031;28;20527;-75
2022/05/22 09:02:02;;;;;;;12.77;4.72;;;23.00;46.90;;;;;;4991869;28;20116;-74
2022/05/22 09:04:51;;;;;;;15.30;4.88;;;22.90;46.40;;;;;;4994167;28;20041;-78
2022/05/22 09:07:24;;;;;;;12.85;3.45;;;23.00;46.30;;;;;;4998602;28;20050;-77
2022/05/22 09:10:14;;;;;;;10.68;3.75;;;23.10;45.10;;;;;;4991230;28;20125;-77
2022/05/22 09:12:58;;;;;;;9.88;3.88;;;23.20;45.30;;;;;;4991372;28;20041;-77
2022/05/22 09:15:34;;;;;;;12.93;4.25;;;23.40;45.80;;;;;;4992180;28;20042;-78
2022/05/22 09:18:14;;;;;;;9.40;3.10;;;23.40;44.40;;;;;;4992498;28;20038;-81
2022/05/22 09:21:00;;;;;;;9.13;3.30;;;23.50;45.00;;;;;;4996711;28;20046;-74
2022/05/22 09:23:49;;;;;;;8.68;3.40;;;23.70;43.40;;;;;;5000863;28;20475;-74
2022/05/22 09:26:41;;;;;;;9.13;3.50;;;23.50;43.60;;;;;;5000442;28;20038;-77
2022/05/22 09:29:18;;;;;;;9.15;3.60;;;23.60;42.50;;;;;;5007349;28;20129;-76
2022/05/22 09:32:03;;;;;;;11.68;3.80;;;23.20;43.70;;;;;;5002388;28;20116;-74
2022/05/22 09:34:47;;;;;;;10.77;3.75;;;23.30;44.30;;;;;;4999584;28;20047;-76
2022/05/22 09:37:19;;;;;;;11.88;4.10;;;23.60;44.40;;;;;;5007004;28;20050;-74
2022/05/22 09:40:03;;;;;;;10.52;4.22;;;23.60;45.70;;;;;;4995792;28;20049;-79
2022/05/22 09:42:48;;;;;;;8.85;3.72;;;23.70;45.60;;;;;;4994954;28;20163;-77
2022/05/22 09:45:16;;;;;;;11.57;3.22;;;23.80;45.20;;;;;;5000882;28;20090;-79
2022/05/22 09:48:21;;;;;;;9.45;3.70;;;24.10;43.80;;;;;;4998786;28;20057;-75
2022/05/22 09:51:20;;;;;;;11.23;4.35;;;24.30;44.00;;;;;;4998023;28;20042;-74
2022/05/22 09:54:22;;;;;;;12.10;4.78;;;24.20;43.90;;;;;;5000971;28;20053;-77
2022/05/22 09:57:07;;;;;;;9.63;4.43;;;24.10;44.10;;;;;;5004359;28;20054;-78
2022/05/22 09:59:51;;;;;;;8.75;4.50;;;24.10;45.10;;;;;;5001798;28;20129;-74
2022/05/22 10:02:26;;;;;;;10.70;4.87;;;23.90;44.90;;;;;;4999053;28;20337;-73
2022/05/22 10:05:18;;;;;;;11.40;4.80;;;24.00;45.90;;;;;;5003268;28;20117;-74
2022/05/22 10:07:55;;;;;;;11.90;5.15;;;24.00;44.60;;;;;;4976797;28;20038;-74
2022/05/22 10:10:38;;;;;;;15.50;5.28;;;24.30;45.10;;;;;;5004292;28;20520;-74
2022/05/22 10:13:20;;;;;;;11.60;5.65;;;23.70;46.20;;;;;;4998975;28;20050;-72
2022/05/22 10:16:08;;;;;;;14.32;6.28;;;23.80;46.10;;;;;;4995932;28;20037;-78
2022/05/22 10:19:05;;;;;;;11.95;5.45;;;23.80;45.10;;;;;;5005530;28;20033;-81
2022/05/22 10:21:31;;;;;;;10.70;5.07;;;24.00;46.20;;;;;;5012153;28;20038;-77
2022/05/22 10:24:21;;;;;;;14.50;5.70;;;24.40;44.70;;;;;;5002909;28;20096;-76
2022/05/22 10:27:11;;;;;;;12.60;6.10;;;24.50;44.40;;;;;;5007940;28;20042;-74
2022/05/22 10:29:56;;;;;;;14.02;6.40;;;24.70;43.70;;;;;;5003617;28;20046;-78
2022/05/22 10:32:52;;;;;;;12.98;6.30;;;24.90;42.50;;;;;;4998657;28;20030;-76
2022/05/22 10:35:49;;;;;;;11.63;5.80;;;24.70;42.90;;;;;;4998636;28;20052;-79
2022/05/22 10:38:22;;;;;;;13.45;6.20;;;24.70;43.90;;;;;;4998825;28;20034;-80
2022/05/22 10:43:42;;;;;;;12.93;7.63;;;24.80;42.20;;;;;;4999823;28;20503;-76
2022/05/22 10:46:08;;;;;;;16.45;6.78;;;24.80;43.30;;;;;;4997594;28;20061;-75
2022/05/22 10:48:35;;;;;;;13.85;6.75;;;24.60;44.20;;;;;;5001254;28;20462;-78
2022/05/22 10:51:12;;;;;;;14.57;6.60;;;24.20;44.80;;;;;;4999901;28;20026;-74
2022/05/22 10:53:46;;;;;;;15.00;6.18;;;24.10;45.40;;;;;;4997968;28;20477;-73
2022/05/22 10:56:24;;;;;;;15.18;6.57;;;24.20;46.90;;;;;;5000493;28;20076;-74
2022/05/22 10:58:59;;;;;;;12.48;5.95;;;24.60;44.70;;;;;;4997963;28;20092;-75
2022/05/22 11:01:37;;;;;;;14.27;6.18;;;24.60;45.20;;;;;;5001981;28;20030;-75
2022/05/22 11:04:09;;;;;;;13.50;6.60;;;24.70;45.30;;;;;;4996258;28;20046;-76
2022/05/22 11:06:50;;;;;;;9.77;5.28;;;25.00;44.60;;;;;;5004515;28;20046;-78
2022/05/22 11:09:24;;;;;;;11.98;6.55;;;25.10;41.80;;;;;;5001033;28;20030;-75
2022/05/22 11:11:49;;;;;;;15.20;6.28;;;25.10;41.40;;;;;;5006985;28;20029;-74
2022/05/22 11:14:20;;;;;;;13.75;5.70;;;25.20;42.10;;;;;;4996858;28;20575;-74
2022/05/22 11:16:47;;;;;;;13.18;5.63;;;25.50;42.50;;;;;;5009791;28;20117;-74
2022/05/22 11:19:24;;;;;;;10.68;5.97;;;25.60;41.80;;;;;;4995422;28;20030;-76
2022/05/22 11:25:41;;;;;;;12.60;6.07;;;25.50;40.20;;;;;;5045518;27;20524;-77
2022/05/22 11:28:21;;;;;;;12.52;6.45;;;25.10;42.30;;;;;;5039440;28;20045;-78
2022/05/22 11:31:03;;;;;;;11.13;5.63;;;25.00;42.30;;;;;;5046478;28;20045;-75
2022/05/22 11:33:37;;;;;;;11.38;5.97;;;25.40;41.90;;;;;;5047258;28;20049;-75
2022/05/22 11:36:15;;;;;;;12.60;5.93;;;25.60;42.30;;;;;;5043526;28;20032;-73
2022/05/22 11:38:44;;;;;;;11.45;6.07;;;25.60;42.80;;;;;;5037274;28;20041;-73
2022/05/22 11:41:43;;;;;;;11.45;5.85;;;25.60;42.70;;;;;;5045082;28;20025;-79
2022/05/22 11:44:50;;;;;;;12.13;5.82;;;25.50;41.50;;;;;;5043005;28;20387;-77
2022/05/22 11:47:31;;;;;;;10.70;4.43;;;25.80;41.70;;;;;;5026508;28;20091;-79
2022/05/22 11:50:06;;;;;;;11.40;5.20;;;26.10;39.60;;;;;;5034124;28;20033;-76
2022/05/22 11:53:12;;;;;;;11.98;5.30;;;26.10;39.30;;;;;;5052847;28;20056;-78
2022/05/22 11:55:59;;;;;;;11.48;5.55;;;26.30;40.60;;;;;;4981046;28;20054;-77
2022/05/22 11:58:44;;;;;;;11.95;6.00;;;26.20;39.80;;;;;;5027009;28;20029;-77
2022/05/22 12:01:30;;;;;;;11.85;6.45;;;26.10;40.20;;;;;;5025218;28;20498;-77
2022/05/22 12:04:24;;;;;;;11.82;5.85;;;26.10;40.70;;;;;;5043384;28;20046;-75
2022/05/22 12:07:12;;;;;;;13.07;6.03;;;26.00;41.00;;;;;;5020658;28;20050;-77
2022/05/22 12:10:01;;;;;;;12.18;5.38;;;25.80;41.20;;;;;;4999287;28;20029;-75
2022/05/22 12:13:02;;;;;;;11.68;5.50;;;25.80;40.40;;;;;;5021920;28;20049;-74
2022/05/22 12:15:42;;;;;;;11.32;5.30;;;25.80;41.00;;;;;;5023461;28;20034;-73
2022/05/22 12:18:37;;;;;;;12.57;5.93;;;25.80;40.70;;;;;;5015852;28;20105;-74
2022/05/22 12:21:34;;;;;;;10.75;5.65;;;25.60;41.70;;;;;;5018779;28;20171;-78
2022/05/22 12:24:26;;;;;;;11.07;4.65;;;25.20;41.00;;;;;;5028075;28;20064;-76
2022/05/22 12:26:52;;;;;;;12.60;4.70;;;25.20;41.40;;;;;;5027382;28;20058;-75
2022/05/22 12:29:34;;;;;;;11.80;4.70;;;25.60;41.10;;;;;;5020819;28;20069;-74
2022/05/22 12:32:13;;;;;;;12.40;4.80;;;25.70;40.30;;;;;;5030987;28;20037;-78
2022/05/22 12:34:45;;;;;;;11.38;4.70;;;26.00;39.80;;;;;;5014399;28;20042;-77
2022/05/22 12:37:23;;;;;;;9.13;4.55;;;26.10;40.10;;;;;;5006121;28;20037;-74
2022/05/22 12:40:07;;;;;;;9.18;4.32;;;26.00;38.70;;;;;;5003597;28;20038;-73
2022/05/22 12:42:37;;;;;;;9.07;4.35;;;25.80;39.00;;;;;;5015328;28;20088;-75
2022/05/22 12:45:03;;;;;;;10.93;4.25;;;25.80;39.00;;;;;;5003493;28;20512;-77
2022/05/22 12:47:47;;;;;;;9.85;4.38;;;25.70;38.40;;;;;;5019808;28;20465;-74
2022/05/22 12:50:32;;;;;;;8.63;4.05;;;25.80;37.70;;;;;;5007551;28;20460;-74
2022/05/22 12:52:59;;;;;;;8.82;3.80;;;25.90;38.00;;;;;;5012858;28;20045;-75
2022/05/22 12:55:35;;;;;;;12.07;6.07;;;26.10;38.40;;;;;;5005413;28;20398;-76
2022/05/22 12:58:03;;;;;;;9.10;4.75;;;26.10;38.70;;;;;;5012039;28;20478;-77
2022/05/22 13:00:38;;;;;;;8.82;4.15;;;26.30;39.50;;;;;;5017881;28;20061;-75
2022/05/22 13:03:16;;;;;;;9.75;3.97;;;26.20;39.70;;;;;;5013482;28;20428;-77
2022/05/22 13:06:05;;;;;;;10.25;4.00;;;26.40;40.10;;;;;;5018923;28;20169;-75
2022/05/22 13:09:02;;;;;;;15.10;7.30;;;26.70;39.10;;;;;;5011322;28;20032;-74
2022/05/22 13:11:42;;;;;;;11.55;5.40;;;26.70;39.60;;;;;;5008906;28;20041;-75